createdAt,value
2018-06-16T00:02:08.576Z,11.33
2018-06-16T00:05:12.978Z,14.03
2018-06-16T00:08:17.538Z,13.77
2018-06-16T00:11:21.980Z,9.40
2018-06-16T00:14:26.353Z,12.33
2018-06-16T00:17:30.753Z,12.83
2018-06-16T00:20:35.134Z,9.30
2018-06-16T00:23:39.509Z,11.47
2018-06-16T00:26:43.890Z,10.43
2018-06-16T00:29:48.269Z,11.90
2018-06-16T00:32:52.649Z,15.77
2018-06-16T00:35:57.090Z,13.10
2018-06-16T00:39:01.483Z,16.13
2018-06-16T00:42:05.922Z,9.57
2018-06-16T00:45:10.285Z,12.30
2018-06-16T00:48:14.705Z,13.03
2018-06-16T00:51:19.925Z,10.70
2018-06-16T00:54:24.326Z,10.90
2018-06-16T00:57:41.304Z,13.03
2018-06-16T01:00:45.698Z,13.20
2018-06-16T01:03:50.093Z,11.20
2018-06-16T01:06:54.501Z,9.23
2018-06-16T01:09:58.900Z,10.33
2018-06-16T01:13:03.288Z,11.73
2018-06-16T01:16:07.705Z,12.07
2018-06-16T01:19:12.075Z,9.10
2018-06-16T01:22:16.498Z,14.40
2018-06-16T01:25:20.860Z,9.40
2018-06-16T01:28:25.232Z,9.33
2018-06-16T01:31:29.622Z,9.40
2018-06-16T01:34:34.037Z,8.47
2018-06-16T01:37:38.453Z,12.30
2018-06-16T01:40:42.868Z,11.63
2018-06-16T01:43:47.245Z,12.27
2018-06-16T01:46:51.620Z,10.20
2018-06-16T01:49:55.996Z,8.97
2018-06-16T01:53:00.393Z,11.63
2018-06-16T01:56:04.792Z,11.27
2018-06-16T01:59:09.205Z,10.03
2018-06-16T02:02:13.568Z,9.70
2018-06-16T02:05:17.956Z,7.30
2018-06-16T02:08:22.533Z,9.07
2018-06-16T02:11:26.917Z,8.40
2018-06-16T02:14:31.314Z,12.17
2018-06-16T02:17:35.719Z,10.03
2018-06-16T02:20:40.140Z,8.13
2018-06-16T02:23:44.539Z,15.97
2018-06-16T02:26:48.905Z,11.43
2018-06-16T02:29:53.297Z,13.03
2018-06-16T02:32:57.681Z,10.63
2018-06-16T02:36:02.055Z,11.67
2018-06-16T02:39:09.505Z,8.43
2018-06-16T02:42:13.872Z,9.13
2018-06-16T02:45:18.249Z,9.67
2018-06-16T02:48:22.620Z,12.67
2018-06-16T02:51:27.029Z,8.13
2018-06-16T02:54:31.378Z,9.10
2018-06-16T02:57:35.773Z,9.70
2018-06-16T03:00:40.184Z,9.70
2018-06-16T03:03:44.556Z,9.13
2018-06-16T03:06:48.937Z,5.13
2018-06-16T03:09:53.313Z,8.13
2018-06-16T03:12:57.734Z,7.50
2018-06-16T03:16:02.096Z,11.13
2018-06-16T03:19:06.493Z,9.37
2018-06-16T03:22:10.868Z,10.00
2018-06-16T03:25:15.233Z,9.00
2018-06-16T03:28:19.602Z,11.10
2018-06-16T03:31:23.948Z,7.67
2018-06-16T03:34:28.310Z,9.97
2018-06-16T03:37:32.687Z,8.73
2018-06-16T03:40:37.064Z,8.83
2018-06-16T03:43:41.467Z,8.27
2018-06-16T03:46:45.872Z,7.30
2018-06-16T03:49:50.282Z,6.77
2018-06-16T03:52:54.698Z,8.63
2018-06-16T03:55:59.117Z,10.30
2018-06-16T03:59:03.519Z,5.53
2018-06-16T04:02:07.945Z,8.87
2018-06-16T04:05:12.316Z,8.87
2018-06-16T04:08:16.701Z,9.80
2018-06-16T04:11:21.068Z,5.10
2018-06-16T04:14:25.565Z,10.33
2018-06-16T04:17:29.954Z,10.27
2018-06-16T04:20:34.356Z,6.90
2018-06-16T04:23:38.736Z,4.93
2018-06-16T04:26:43.108Z,6.97
2018-06-16T04:29:47.500Z,9.17
2018-06-16T04:32:51.905Z,7.10
2018-06-16T04:35:56.682Z,7.10
2018-06-16T04:39:01.110Z,6.80
2018-06-16T04:42:05.905Z,10.80
2018-06-16T04:45:10.286Z,8.33
2018-06-16T04:48:14.684Z,8.07
2018-06-16T04:51:19.073Z,8.87
2018-06-16T04:54:23.609Z,6.40
2018-06-16T04:57:28.004Z,7.60
2018-06-16T05:00:32.358Z,6.83
2018-06-16T05:03:36.723Z,9.43
2018-06-16T05:06:41.098Z,7.83
2018-06-16T05:09:45.490Z,9.03
2018-06-16T05:12:49.837Z,5.37
2018-06-16T05:15:54.248Z,7.03
2018-06-16T05:18:58.609Z,9.50
2018-06-16T05:22:02.998Z,5.83
2018-06-16T05:25:07.401Z,9.60
2018-06-16T05:28:11.761Z,9.00
2018-06-16T05:31:16.157Z,11.20
2018-06-16T05:34:20.560Z,5.40
2018-06-16T05:37:24.953Z,11.07
2018-06-16T05:40:29.325Z,6.33
2018-06-16T05:43:33.703Z,9.27
2018-06-16T05:46:38.081Z,5.47
2018-06-16T05:49:42.462Z,5.63
2018-06-16T05:52:46.809Z,5.13
2018-06-16T05:55:51.236Z,5.30
2018-06-16T05:58:55.598Z,7.47
2018-06-16T06:01:59.981Z,6.73
2018-06-16T06:05:04.373Z,7.43
2018-06-16T06:08:08.757Z,7.70
2018-06-16T06:11:13.120Z,6.00
2018-06-16T06:14:17.493Z,4.27
2018-06-16T06:17:21.860Z,12.83
2018-06-16T06:20:26.225Z,7.40
2018-06-16T06:23:30.605Z,10.33
2018-06-16T06:26:35.000Z,6.37
2018-06-16T06:29:39.095Z,9.37
2018-06-16T06:32:43.473Z,10.20
2018-06-16T06:35:47.846Z,5.83
2018-06-16T06:38:52.246Z,9.90
2018-06-16T06:41:56.621Z,6.73
2018-06-16T06:45:00.993Z,7.60
2018-06-16T06:48:05.430Z,7.23
2018-06-16T06:51:09.804Z,8.83
2018-06-16T06:54:14.209Z,10.33
2018-06-16T06:57:18.589Z,6.93
2018-06-16T07:00:22.969Z,15.30
2018-06-16T07:03:27.356Z,13.70
2018-06-16T07:06:31.717Z,14.57
2018-06-16T07:09:36.089Z,10.33
2018-06-16T07:12:40.194Z,5.93
2018-06-16T07:15:44.577Z,11.13
2018-06-16T07:18:48.945Z,9.13
2018-06-16T07:21:53.335Z,14.60
2018-06-16T07:24:57.706Z,12.43
2018-06-16T07:28:02.068Z,12.83
2018-06-16T07:31:06.472Z,9.87
2018-06-16T07:34:10.861Z,11.47
2018-06-16T07:37:15.223Z,13.10
2018-06-16T07:40:19.620Z,10.50
2018-06-16T07:43:23.982Z,11.20
2018-06-16T07:46:28.343Z,8.93
2018-06-16T07:49:32.700Z,10.67
2018-06-16T07:52:37.102Z,13.73
2018-06-16T07:55:41.450Z,11.03
2018-06-16T07:58:45.818Z,14.37
2018-06-16T08:01:50.216Z,13.27
2018-06-16T08:04:54.596Z,11.73
2018-06-16T08:07:58.949Z,8.83
2018-06-16T08:11:03.333Z,9.30
2018-06-16T08:14:07.684Z,9.47
2018-06-16T08:17:12.087Z,9.63
2018-06-16T08:20:16.429Z,11.37
2018-06-16T08:23:20.817Z,9.87
2018-06-16T08:26:25.196Z,9.47
2018-06-16T08:29:29.605Z,16.70
2018-06-16T08:32:33.962Z,9.67
2018-06-16T08:35:38.361Z,12.70
2018-06-16T08:38:42.760Z,10.27
2018-06-16T08:41:47.153Z,10.87
2018-06-16T08:44:51.562Z,12.70
2018-06-16T08:47:55.964Z,12.87
2018-06-16T08:51:00.343Z,14.13
2018-06-16T08:54:04.781Z,9.40
2018-06-16T08:57:09.157Z,13.20
2018-06-16T09:00:13.560Z,12.07
2018-06-16T09:03:17.938Z,9.40
2018-06-16T09:06:22.314Z,15.07
2018-06-16T09:09:26.685Z,11.50
2018-06-16T09:12:31.109Z,15.23
2018-06-16T09:15:35.479Z,13.27
2018-06-16T09:18:39.898Z,16.63
2018-06-16T09:21:44.305Z,11.83
2018-06-16T09:24:50.793Z,12.57
2018-06-16T09:27:55.208Z,15.17
2018-06-16T09:30:59.600Z,15.27
2018-06-16T09:34:04.007Z,13.93
2018-06-16T09:37:08.570Z,23.60
2018-06-16T09:40:12.988Z,14.27
2018-06-16T09:43:17.383Z,11.83
2018-06-16T09:46:21.810Z,16.37
2018-06-16T09:49:26.162Z,13.57
2018-06-16T09:52:30.589Z,16.27
2018-06-16T09:55:35.045Z,13.97
2018-06-16T09:58:39.447Z,12.57
2018-06-16T10:01:43.801Z,19.13
2018-06-16T10:04:48.197Z,13.03
2018-06-16T10:07:52.566Z,14.57
2018-06-16T10:10:56.938Z,17.07
2018-06-16T10:14:01.274Z,14.63
2018-06-16T10:17:05.777Z,12.90
2018-06-16T10:20:10.209Z,15.37
2018-06-16T10:23:14.584Z,14.63
2018-06-16T10:26:18.976Z,13.97
2018-06-16T10:29:23.351Z,14.03
2018-06-16T10:32:27.734Z,19.37
2018-06-16T10:35:32.111Z,16.70
2018-06-16T10:38:36.489Z,17.77
2018-06-16T10:41:41.079Z,16.67
2018-06-16T10:44:45.450Z,18.20
2018-06-16T10:47:49.585Z,14.93
2018-06-16T10:50:53.954Z,15.40
2018-06-16T10:53:58.348Z,18.97
2018-06-16T10:57:02.717Z,18.20
2018-06-16T11:00:07.171Z,18.10
2018-06-16T11:03:11.584Z,20.17
2018-06-16T11:06:15.973Z,15.23
2018-06-16T11:09:20.384Z,19.87
2018-06-16T11:12:24.785Z,19.97
2018-06-16T11:15:29.190Z,19.93
2018-06-16T11:18:33.571Z,19.53
2018-06-16T11:21:38.076Z,19.43
2018-06-16T11:24:42.480Z,19.67
2018-06-16T11:27:50.907Z,20.67
2018-06-16T11:30:55.277Z,17.77
2018-06-16T11:33:59.697Z,16.77
2018-06-16T11:37:04.070Z,21.53
2018-06-16T11:40:08.506Z,16.00
2018-06-16T11:43:12.874Z,18.30
2018-06-16T11:46:17.302Z,16.87
2018-06-16T11:49:21.710Z,18.23
2018-06-16T11:52:26.144Z,17.73
2018-06-16T11:55:30.536Z,16.37
2018-06-16T11:58:34.991Z,16.37
2018-06-16T12:01:39.395Z,21.43
2018-06-16T12:04:43.801Z,16.83
2018-06-16T12:07:48.202Z,17.23
2018-06-16T12:10:52.662Z,14.80
2018-06-16T12:13:57.076Z,13.83
2018-06-16T12:17:01.495Z,19.47
2018-06-16T12:20:05.910Z,18.63
2018-06-16T12:23:10.333Z,16.50
2018-06-16T12:26:14.708Z,21.50
2018-06-16T12:29:19.132Z,22.90
2018-06-16T12:32:23.540Z,18.53
2018-06-16T12:35:27.937Z,15.23
2018-06-16T12:38:32.340Z,15.37
2018-06-16T12:41:36.755Z,19.33
2018-06-16T12:44:41.329Z,19.47
2018-06-16T12:47:45.830Z,19.63
2018-06-16T12:50:50.630Z,16.63
2018-06-16T12:53:55.020Z,20.73
2018-06-16T12:56:59.490Z,20.40
2018-06-16T13:00:03.902Z,17.97
2018-06-16T13:03:08.332Z,17.00
2018-06-16T13:06:12.737Z,17.67
2018-06-16T13:09:17.151Z,14.60
2018-06-16T13:12:21.564Z,15.63
2018-06-16T13:15:25.974Z,16.33
2018-06-16T13:18:30.361Z,14.90
2018-06-16T13:21:34.484Z,14.27
2018-06-16T13:24:38.926Z,10.40
2018-06-16T13:27:43.374Z,9.40
2018-06-16T13:30:47.849Z,8.13
2018-06-16T13:33:52.248Z,7.77
2018-06-16T13:36:56.661Z,9.63
2018-06-16T13:40:01.041Z,9.30
2018-06-16T13:43:05.496Z,7.67
2018-06-16T13:46:09.853Z,8.17
2018-06-16T13:49:14.271Z,11.33
2018-06-16T13:52:18.775Z,8.87
2018-06-16T13:55:23.178Z,10.77
2018-06-16T13:58:27.553Z,8.40
2018-06-16T14:01:31.933Z,9.10
2018-06-16T14:04:36.353Z,9.83
2018-06-16T14:07:40.762Z,10.60
2018-06-16T14:10:45.182Z,18.33
2018-06-16T14:13:49.596Z,11.07
2018-06-16T14:16:53.997Z,12.50
2018-06-16T14:19:58.416Z,12.13
2018-06-16T14:23:02.566Z,11.60
2018-06-16T14:26:07.009Z,12.77
2018-06-16T14:29:11.414Z,41.27
2018-06-16T14:32:15.804Z,14.67
2018-06-16T14:35:20.202Z,12.47
2018-06-16T14:38:24.634Z,14.27
2018-06-16T14:41:29.059Z,13.67
2018-06-16T14:44:33.469Z,13.57
2018-06-16T14:47:37.899Z,14.37
2018-06-16T14:50:42.293Z,11.37
2018-06-16T14:53:46.725Z,11.87
2018-06-16T14:56:51.157Z,14.67
2018-06-16T14:59:55.573Z,10.80
2018-06-16T15:02:59.965Z,13.47
2018-06-16T15:06:04.379Z,10.30
2018-06-16T15:09:10.680Z,13.17
2018-06-16T15:12:15.084Z,12.70
2018-06-16T15:15:19.505Z,9.87
2018-06-16T15:18:23.925Z,13.10
2018-06-16T15:21:28.333Z,9.23
2018-06-16T15:24:32.728Z,11.00
2018-06-16T15:27:37.156Z,11.17
2018-06-16T15:30:41.557Z,12.37
2018-06-16T15:33:45.961Z,12.90
2018-06-16T15:36:50.349Z,11.03
2018-06-16T15:39:54.769Z,12.30
2018-06-16T15:42:59.173Z,14.00
2018-06-16T15:46:03.585Z,15.20
2018-06-16T15:49:08.410Z,11.90
2018-06-16T15:52:12.821Z,13.43
2018-06-16T15:55:17.184Z,20.27
2018-06-16T15:58:21.548Z,23.67
2018-06-16T16:01:25.941Z,17.33
2018-06-16T16:04:30.340Z,13.50
2018-06-16T16:07:34.728Z,15.90
2018-06-16T16:10:39.106Z,19.43
2018-06-16T16:13:43.535Z,26.10
2018-06-16T16:16:47.913Z,38.33
2018-06-16T16:19:52.329Z,46.63
2018-06-16T16:22:56.729Z,43.70
2018-06-16T16:26:01.123Z,38.97
2018-06-16T16:29:05.566Z,47.47
2018-06-16T16:32:09.921Z,38.20
2018-06-16T16:35:14.308Z,50.07
2018-06-16T16:38:18.925Z,46.60
2018-06-16T16:41:23.695Z,41.13
2018-06-16T16:44:28.399Z,42.13
2018-06-16T16:47:32.905Z,36.33
2018-06-16T16:50:37.390Z,33.00
2018-06-16T16:53:43.655Z,35.50
2018-06-16T16:56:48.401Z,31.50
2018-06-16T16:59:53.631Z,35.80
2018-06-16T17:02:58.444Z,35.40
2018-06-16T17:06:02.928Z,34.20
2018-06-16T17:09:09.829Z,33.37
2018-06-16T17:12:14.201Z,33.37
2018-06-16T17:15:18.568Z,34.77
2018-06-16T17:18:22.936Z,37.97
2018-06-16T17:21:27.307Z,39.67
2018-06-16T17:24:31.685Z,40.13
2018-06-16T17:27:36.092Z,41.07
2018-06-16T17:30:40.472Z,34.20
2018-06-16T17:33:44.857Z,35.47
2018-06-16T17:36:49.258Z,34.73
2018-06-16T17:39:53.944Z,28.00
2018-06-16T17:42:58.334Z,34.63
2018-06-16T17:46:02.697Z,29.90
2018-06-16T17:49:07.057Z,32.50
2018-06-16T17:52:11.429Z,33.13
2018-06-16T17:55:15.968Z,33.63
2018-06-16T17:58:20.325Z,33.57
2018-06-16T18:01:24.724Z,32.27
2018-06-16T18:04:29.156Z,29.43
2018-06-16T18:07:33.538Z,30.80
2018-06-16T18:10:37.956Z,31.67
2018-06-16T18:13:42.335Z,30.33
2018-06-16T18:16:46.755Z,28.07
2018-06-16T18:19:51.109Z,28.50
2018-06-16T18:22:55.457Z,29.37
2018-06-16T18:25:59.866Z,26.37
2018-06-16T18:29:04.225Z,23.60
2018-06-16T18:32:08.600Z,21.70
2018-06-16T18:35:13.005Z,23.37
2018-06-16T18:38:17.352Z,25.77
2018-06-16T18:41:21.720Z,22.90
2018-06-16T18:44:26.092Z,25.40
2018-06-16T18:47:30.453Z,24.03
2018-06-16T18:50:34.833Z,22.17
2018-06-16T18:53:39.184Z,25.97
2018-06-16T18:56:43.560Z,23.90
2018-06-16T18:59:47.941Z,24.43
2018-06-16T19:02:52.309Z,23.27
2018-06-16T19:05:56.673Z,24.67
2018-06-16T19:09:01.053Z,22.43
2018-06-16T19:12:05.441Z,21.23
2018-06-16T19:15:09.824Z,21.50
2018-06-16T19:18:14.184Z,24.20
2018-06-16T19:21:18.556Z,22.53
2018-06-16T19:24:22.914Z,23.30
2018-06-16T19:27:27.317Z,27.70
2018-06-16T19:30:31.710Z,24.80
2018-06-16T19:33:36.170Z,24.60
2018-06-16T19:36:40.523Z,25.20
2018-06-16T19:39:44.890Z,24.23
2018-06-16T19:42:49.274Z,21.50
2018-06-16T19:45:53.648Z,24.33
2018-06-16T19:48:58.036Z,22.80
2018-06-16T19:52:02.398Z,22.50
2018-06-16T19:55:07.706Z,22.47
2018-06-16T19:58:12.128Z,23.60
2018-06-16T20:01:16.509Z,26.67
2018-06-16T20:04:20.914Z,27.00
2018-06-16T20:07:25.277Z,22.07
2018-06-16T20:10:29.655Z,24.13
2018-06-16T20:13:34.018Z,24.40
2018-06-16T20:16:38.430Z,23.67
2018-06-16T20:19:42.802Z,21.47
2018-06-16T20:22:47.229Z,21.67
2018-06-16T20:25:51.603Z,23.70
2018-06-16T20:28:55.970Z,25.00
2018-06-16T20:32:00.355Z,23.97
2018-06-16T20:35:04.790Z,23.50
2018-06-16T20:38:09.185Z,32.17
2018-06-16T20:41:13.543Z,21.90
2018-06-16T20:44:18.084Z,26.67
2018-06-16T20:47:22.444Z,26.37
2018-06-16T20:50:26.835Z,22.60
2018-06-16T20:53:31.348Z,23.97
2018-06-16T20:56:35.733Z,20.70
2018-06-16T20:59:40.121Z,21.23
2018-06-16T21:02:44.493Z,20.80
2018-06-16T21:05:48.865Z,22.67
2018-06-16T21:08:53.258Z,22.33
2018-06-16T21:11:57.625Z,20.17
2018-06-16T21:15:01.981Z,24.17
2018-06-16T21:18:06.557Z,24.43
2018-06-16T21:21:10.950Z,22.87
2018-06-16T21:24:15.333Z,23.43
2018-06-16T21:27:19.693Z,24.57
2018-06-16T21:30:23.843Z,26.87
2018-06-16T21:33:28.197Z,30.40
2018-06-16T21:36:32.598Z,27.00
2018-06-16T21:39:36.996Z,27.30
2018-06-16T21:42:41.385Z,24.03
2018-06-16T21:45:45.769Z,22.00
2018-06-16T21:48:50.142Z,24.63
2018-06-16T21:51:54.530Z,24.10
2018-06-16T21:54:58.941Z,26.10
2018-06-16T21:58:03.313Z,24.67
2018-06-16T22:01:07.736Z,29.30
2018-06-16T22:04:12.097Z,27.67
2018-06-16T22:07:16.625Z,31.67
2018-06-16T22:10:21.060Z,23.27
2018-06-16T22:13:25.426Z,23.00
2018-06-16T22:16:29.805Z,26.37
2018-06-16T22:19:34.191Z,25.37
2018-06-16T22:22:38.557Z,29.10
2018-06-16T22:25:42.949Z,28.90
2018-06-16T22:28:47.325Z,25.67
2018-06-16T22:31:51.740Z,26.23
2018-06-16T22:34:55.867Z,28.13
2018-06-16T22:38:00.004Z,31.83
2018-06-16T22:41:04.378Z,30.97
2018-06-16T22:44:09.571Z,34.43
2018-06-16T22:47:13.920Z,35.83
2018-06-16T22:50:18.335Z,36.17
2018-06-16T22:53:22.706Z,40.23
2018-06-16T22:56:27.140Z,39.10
2018-06-16T22:59:31.493Z,42.83
2018-06-16T23:02:36.063Z,38.60
2018-06-16T23:05:40.452Z,39.03
2018-06-16T23:08:44.873Z,43.77
2018-06-16T23:11:49.261Z,42.00
2018-06-16T23:14:53.674Z,49.17
2018-06-16T23:17:58.081Z,49.10
2018-06-16T23:21:02.479Z,53.37
2018-06-16T23:24:06.861Z,65.03
2018-06-16T23:27:11.253Z,57.43
2018-06-16T23:30:15.685Z,57.90
2018-06-16T23:33:20.064Z,53.40
2018-06-16T23:36:24.457Z,53.50
2018-06-16T23:39:28.845Z,50.43
2018-06-16T23:42:33.221Z,44.33
2018-06-16T23:45:37.613Z,46.87
2018-06-16T23:48:42.012Z,42.17
2018-06-16T23:51:46.382Z,47.23
2018-06-16T23:54:50.802Z,45.07
2018-06-16T23:57:55.197Z,53.27
